Time;durP1;ratioP1;P1;durP2;ratioP2;P2;SDS_P1;SDS_P2;PMS_P1;PMS_P2;Temp;Humidity;BMP_temperature;BMP_pressure;BME280_temperature;BME280_humidity;BME280_pressure;Samples;Min_cycle;Max_cycle;Signal;HPM_P1;HPM_P2
2021/11/13 00:00:10;;;;;;;33.47;19.63;;;;;;;8.88;93.31;100853.34;5059755;28;20029;-70
2021/11/13 00:02:36;;;;;;;41.28;21.15;;;;;;;8.94;93.89;100860.38;5041961;28;20035;-70
2021/11/13 00:05:02;;;;;;;37.95;21.08;;;;;;;8.96;93.34;100866.19;5059672;28;20467;-69
2021/11/13 00:07:28;;;;;;;37.72;20.52;;;;;;;9.00;93.14;100863.06;5059719;28;20028;-68
2021/11/13 00:09:53;;;;;;;36.05;20.52;;;;;;;9.01;93.33;100849.22;5059544;28;20048;-69
2021/11/13 00:12:18;;;;;;;38.22;20.75;;;;;;;9.07;92.74;100846.94;5041773;28;20051;-71
2021/11/13 00:14:46;;;;;;;37.28;21.05;;;;;;;9.07;92.92;100847.72;5059588;28;20028;-69
2021/11/13 00:17:12;;;;;;;41.58;21.67;;;;;;;9.07;93.26;100842.56;5059241;28;20467;-69
2021/11/13 00:19:38;;;;;;;40.97;21.75;;;;;;;9.12;92.82;100835.13;5041596;28;20075;-71
2021/11/13 00:22:03;;;;;;;37.05;22.00;;;;;;;9.04;92.65;100833.41;5041632;28;20021;-69
2021/11/13 00:24:29;;;;;;;39.20;22.05;;;;;;;9.14;92.59;100838.28;5041648;28;20017;-71
2021/11/13 00:26:54;;;;;;;36.17;21.73;;;;;;;9.12;92.62;100829.97;5060061;28;20429;-70
2021/11/13 00:29:19;;;;;;;38.38;22.85;;;;;;;9.07;92.92;100831.47;5059798;28;20040;-69
2021/11/13 00:31:45;;;;;;;38.03;22.25;;;;;;;9.05;93.20;100834.19;5059489;28;20498;-70
2021/11/13 00:34:10;;;;;;;42.22;22.27;;;;;;;9.14;92.41;100822.03;5041541;28;20020;-70
2021/11/13 00:36:35;;;;;;;42.03;22.30;;;;;;;9.12;92.42;100821.41;5059392;28;20376;-70
2021/11/13 00:39:03;;;;;;;44.47;23.17;;;;;;;9.24;92.42;100831.13;5059711;28;20390;-70
2021/11/13 00:41:29;;;;;;;40.53;22.40;;;;;;;9.19;92.22;100812.78;5059399;28;20032;-70
2021/11/13 00:43:54;;;;;;;36.83;22.42;;;;;;;9.18;92.63;100823.28;5041454;28;20108;-70
2021/11/13 00:46:19;;;;;;;39.38;22.40;;;;;;;9.15;92.70;100816.72;5059366;28;20036;-70
2021/11/13 00:48:45;;;;;;;37.13;22.13;;;;;;;9.09;93.43;100814.00;5059323;28;20040;-68
2021/11/13 00:51:10;;;;;;;42.80;22.88;;;;;;;9.12;93.15;100804.19;5038351;28;20056;-70
2021/11/13 00:53:35;;;;;;;40.70;22.55;;;;;;;9.16;93.26;100808.00;5038167;28;20423;-70
2021/11/13 00:56:01;;;;;;;49.45;23.40;;;;;;;9.15;93.38;100806.41;5056141;28;20025;-70
2021/11/13 00:58:27;;;;;;;44.53;23.65;;;;;;;9.15;93.43;100803.00;5056575;28;20033;-68
2021/11/13 01:00:53;;;;;;;40.92;22.42;;;;;;;9.24;92.97;100804.53;5056189;28;20086;-70
2021/11/13 01:03:18;;;;;;;39.53;22.48;;;;;;;9.15;92.84;100810.72;5038085;28;20478;-69
2021/11/13 01:05:44;;;;;;;39.42;22.10;;;;;;;9.18;93.25;100807.81;5055893;28;20090;-69
2021/11/13 01:08:09;;;;;;;45.47;23.33;;;;;;;9.12;93.79;100811.09;5055909;28;20025;-69
2021/11/13 01:10:35;;;;;;;41.25;21.48;;;;;;;9.23;93.34;100797.75;5055770;28;20110;-68
2021/11/13 01:13:00;;;;;;;41.38;21.33;;;;;;;9.16;92.87;100804.63;5055785;28;20031;-69
2021/11/13 01:15:25;;;;;;;43.97;22.25;;;;;;;9.20;93.32;100798.13;5037758;28;20124;-69
2021/11/13 01:17:51;;;;;;;39.03;21.70;;;;;;;9.21;93.34;100794.56;5055621;28;20029;-69
2021/11/13 01:20:18;;;;;;;48.22;22.20;;;;;;;9.17;93.18;100796.69;5037781;28;20513;-70
2021/11/13 01:22:44;;;;;;;34.95;19.65;;;;;;;9.11;93.69;100794.03;5055617;28;20100;-70
2021/11/13 01:25:10;;;;;;;43.47;22.70;;;;;;;9.23;93.84;100795.97;5055512;28;20036;-70
2021/11/13 01:27:36;;;;;;;39.00;21.02;;;;;;;9.18;93.64;100803.47;5037667;28;20104;-70
2021/11/13 01:30:03;;;;;;;37.15;20.67;;;;;;;9.21;93.22;100797.16;5055462;28;20124;-70
2021/11/13 01:32:28;;;;;;;41.05;21.05;;;;;;;9.20;93.43;100798.91;5037551;28;20056;-70
2021/11/13 01:34:53;;;;;;;33.70;20.63;;;;;;;9.34;93.68;100799.91;5055534;28;20091;-70
2021/11/13 01:37:19;;;;;;;36.65;20.33;;;;;;;9.28;93.16;100790.28;5055203;28;20025;-69
2021/11/13 01:39:45;;;;;;;36.10;20.00;;;;;;;9.36;93.25;100797.94;5055334;28;20029;-70
2021/11/13 01:42:10;;;;;;;39.45;21.33;;;;;;;9.36;93.32;100784.25;5055227;28;20095;-70
2021/11/13 01:44:36;;;;;;;38.28;20.48;;;;;;;9.31;93.25;100789.16;5055191;28;20029;-70
2021/11/13 01:47:03;;;;;;;38.88;20.55;;;;;;;9.39;93.41;100794.22;5037251;28;20016;-70
2021/11/13 01:49:28;;;;;;;39.65;20.58;;;;;;;9.44;93.55;100804.81;5055032;28;20032;-70
2021/11/13 01:51:54;;;;;;;37.00;20.55;;;;;;;9.41;93.56;100789.69;5055222;28;20526;-70
2021/11/13 01:54:20;;;;;;;33.95;20.10;;;;;;;9.48;93.63;100788.78;5054962;28;20032;-70
2021/11/13 01:56:50;;;;;;;33.67;20.30;;;;;;;9.46;93.54;100788.16;5054877;28;20030;-70
2021/11/13 01:59:15;;;;;;;35.47;20.00;;;;;;;9.50;93.33;100788.59;5054906;28;20025;-69
2021/11/13 02:01:42;;;;;;;32.35;20.25;;;;;;;9.31;93.57;100773.66;5053985;28;20020;-70
2021/11/13 02:04:07;;;;;;;34.33;20.38;;;;;;;9.43;93.92;100782.56;5054580;28;20025;-69
2021/11/13 02:06:34;;;;;;;36.95;20.70;;;;;;;9.49;93.51;100774.91;5055378;28;20029;-70
2021/11/13 02:08:59;;;;;;;32.33;19.25;;;;;;;9.56;93.38;100772.41;5036580;28;20067;-70
2021/11/13 02:11:26;;;;;;;36.15;19.33;;;;;;;9.60;93.34;100770.25;5054711;28;20079;-70
2021/11/13 02:13:54;;;;;;;35.55;19.92;;;;;;;9.47;93.96;100776.88;5054649;28;20151;-70
2021/11/13 02:16:20;;;;;;;35.50;19.17;;;;;;;9.37;94.39;100780.69;5054434;28;20020;-70
2021/11/13 02:18:45;;;;;;;35.83;19.92;;;;;;;9.45;94.59;100780.59;5054559;28;20028;-70
2021/11/13 02:21:11;;;;;;;31.15;20.02;;;;;;;9.48;94.85;100770.72;5054396;28;20467;-70
2021/11/13 02:23:38;;;;;;;33.50;20.17;;;;;;;9.45;94.48;100772.88;5054972;28;20021;-70
2021/11/13 02:26:04;;;;;;;34.10;20.42;;;;;;;9.37;94.72;100763.44;5054417;28;20100;-70
2021/11/13 02:28:30;;;;;;;32.63;20.50;;;;;;;9.47;94.85;100773.50;5054344;28;20443;-70
2021/11/13 02:30:58;;;;;;;32.38;20.20;;;;;;;9.51;94.87;100761.03;5054312;28;20104;-70
2021/11/13 02:33:25;;;;;;;32.47;20.42;;;;;;;9.61;94.66;100770.09;5054773;28;20079;-70
2021/11/13 02:35:53;;;;;;;33.63;19.02;;;;;;;9.63;94.46;100765.53;5054213;28;20533;-70
2021/11/13 02:38:22;;;;;;;31.25;18.88;;;;;;;9.61;94.82;100762.34;5054073;28;20067;-70
2021/11/13 02:40:50;;;;;;;33.58;19.55;;;;;;;9.58;95.01;100772.22;5054082;28;20028;-70
2021/11/13 02:43:16;;;;;;;28.77;18.77;;;;;;;9.67;94.81;100771.16;5036113;28;20028;-70
2021/11/13 02:45:43;;;;;;;27.42;17.65;;;;;;;9.68;94.71;100763.22;5054597;28;20069;-70
2021/11/13 02:48:09;;;;;;;27.77;17.88;;;;;;;9.71;94.53;100757.69;5053958;28;20025;-70
2021/11/13 02:50:36;;;;;;;27.50;18.10;;;;;;;9.68;94.69;100755.47;5053953;28;20058;-70
2021/11/13 02:53:03;;;;;;;27.60;17.58;;;;;;;9.58;95.35;100752.41;5036003;28;20446;-71
2021/11/13 02:55:30;;;;;;;27.38;18.13;;;;;;;9.69;95.13;100764.00;5053680;28;20029;-70
2021/11/13 02:57:56;;;;;;;28.90;17.08;;;;;;;9.74;95.36;100758.31;5035959;28;20057;-70
2021/11/13 03:00:25;;;;;;;26.08;17.05;;;;;;;9.86;94.54;100760.22;5035945;28;20028;-70
2021/11/13 03:02:51;;;;;;;24.98;16.42;;;;;;;9.86;94.73;100765.38;5053612;28;20089;-70
2021/11/13 03:05:28;;;;;;;26.67;17.17;;;;;;;9.87;94.57;100767.00;5035951;28;20526;-70
2021/11/13 03:07:57;;;;;;;28.88;17.10;;;;;;;9.87;95.06;100764.44;5053690;28;20032;-70
2021/11/13 03:10:26;;;;;;;28.45;17.15;;;;;;;9.78;94.60;100759.53;5053494;28;20080;-70
2021/11/13 03:12:52;;;;;;;33.63;18.80;;;;;;;9.88;94.81;100766.03;5053382;28;20036;-70
2021/11/13 03:15:20;;;;;;;35.20;17.33;;;;;;;9.90;95.03;100771.00;5053412;28;20420;-70
2021/11/13 03:17:47;;;;;;;29.25;18.23;;;;;;;9.90;95.44;100773.59;5035603;28;20028;-70
2021/11/13 03:20:18;;;;;;;26.77;17.50;;;;;;;9.99;94.75;100769.91;5035626;28;20028;-70
2021/11/13 03:22:44;;;;;;;29.02;17.40;;;;;;;9.99;94.56;100762.16;5053518;28;20021;-71
2021/11/13 03:25:16;;;;;;;26.50;17.17;;;;;;;10.00;94.57;100768.13;5035604;28;20025;-70
2021/11/13 03:27:44;;;;;;;27.13;17.10;;;;;;;9.86;95.30;100765.38;5053370;28;20025;-70
2021/11/13 03:30:11;;;;;;;28.30;17.67;;;;;;;9.96;95.58;100764.31;5053374;28;20028;-70
2021/11/13 03:32:36;;;;;;;26.25;16.48;;;;;;;9.93;95.26;100753.38;5053402;28;20027;-70
2021/11/13 03:35:04;;;;;;;28.23;17.42;;;;;;;9.97;95.31;100758.97;5053852;28;20103;-71
2021/11/13 03:37:30;;;;;;;33.63;17.60;;;;;;;10.01;95.24;100749.06;5053724;28;20368;-70
2021/11/13 03:39:55;;;;;;;30.75;17.75;;;;;;;10.07;95.08;100756.06;5053286;28;20021;-70
2021/11/13 03:42:22;;;;;;;26.02;17.38;;;;;;;10.09;94.98;100754.09;5053331;28;20060;-70
2021/11/13 03:44:48;;;;;;;29.13;17.77;;;;;;;10.02;95.09;100751.47;5053272;28;20539;-70
2021/11/13 03:47:13;;;;;;;28.00;16.92;;;;;;;10.03;95.02;100757.44;5035388;28;20049;-70
2021/11/13 03:49:38;;;;;;;28.80;17.05;;;;;;;10.05;95.15;100760.63;5035212;28;20028;-70
2021/11/13 03:52:04;;;;;;;29.52;17.05;;;;;;;10.09;95.01;100754.09;5053231;28;20100;-70
2021/11/13 03:54:31;;;;;;;24.23;16.33;;;;;;;10.14;95.00;100760.31;5053068;28;20021;-70
2021/11/13 03:56:56;;;;;;;25.27;16.95;;;;;;;10.23;94.56;100761.00;5053110;28;20045;-70
2021/11/13 03:59:23;;;;;;;23.23;15.30;;;;;;;10.17;94.68;100764.31;5053036;28;20124;-70
2021/11/13 04:01:48;;;;;;;26.20;16.17;;;;;;;10.14;94.75;100764.69;5035213;28;20127;-70
2021/11/13 04:04:14;;;;;;;27.25;16.58;;;;;;;10.17;95.01;100761.75;5053098;28;20100;-70
2021/11/13 04:06:39;;;;;;;27.45;15.88;;;;;;;10.23;94.52;100763.59;5053014;28;20045;-69
2021/11/13 04:09:04;;;;;;;24.60;15.45;;;;;;;10.25;94.67;100769.38;5052868;28;20080;-69
2021/11/13 04:11:30;;;;;;;25.58;15.32;;;;;;;10.30;94.22;100771.41;5052957;28;20464;-69
2021/11/13 04:13:55;;;;;;;30.58;17.60;;;;;;;10.29;94.62;100775.00;5035162;28;20531;-69
2021/11/13 04:16:20;;;;;;;25.58;15.88;;;;;;;10.23;94.59;100778.28;5052891;28;20074;-69
2021/11/13 04:18:45;;;;;;;24.08;15.13;;;;;;;10.28;94.59;100773.41;5052958;28;20066;-69
2021/11/13 04:21:11;;;;;;;26.40;15.45;;;;;;;10.28;94.64;100784.53;5052777;28;20024;-69
2021/11/13 04:23:37;;;;;;;24.65;16.20;;;;;;;10.21;95.04;100780.25;5052940;28;20140;-69
2021/11/13 04:26:03;;;;;;;24.52;16.20;;;;;;;10.25;94.92;100781.50;5036679;28;20028;-69
2021/11/13 04:28:29;;;;;;;25.27;16.23;;;;;;;10.28;94.63;100779.34;5057207;28;20047;-69
2021/11/13 04:30:54;;;;;;;26.73;16.80;;;;;;;10.31;94.51;100781.56;5056624;28;20021;-69
2021/11/13 04:33:19;;;;;;;25.80;16.05;;;;;;;10.27;94.58;100777.78;5038595;28;20021;-69
2021/11/13 04:36:02;;;;;;;25.73;14.98;;;;;;;10.29;94.32;100791.28;5056477;28;20024;-70
2021/11/13 04:38:29;;;;;;;23.67;14.50;;;;;;;10.28;94.76;100800.03;5056577;28;20021;-69
2021/11/13 04:40:55;;;;;;;27.58;14.20;;;;;;;10.30;94.69;100802.41;5038462;28;20187;-69
2021/11/13 04:43:20;;;;;;;23.98;14.07;;;;;;;10.30;94.67;100805.81;5038447;28;20060;-69
2021/11/13 04:45:46;;;;;;;20.95;13.35;;;;;;;10.37;94.29;100811.03;5056362;28;20021;-69
2021/11/13 04:48:11;;;;;;;23.75;14.65;;;;;;;10.32;94.47;100811.56;5056315;28;20406;-70
2021/11/13 04:50:36;;;;;;;24.45;14.32;;;;;;;10.30;94.69;100818.72;5056233;28;20080;-70
2021/11/13 04:53:03;;;;;;;26.33;15.15;;;;;;;10.26;95.21;100827.78;5056171;28;20067;-69
2021/11/13 04:55:29;;;;;;;26.60;14.60;;;;;;;10.28;95.20;100822.47;5056029;28;20056;-69
2021/11/13 04:57:54;;;;;;;22.20;13.77;;;;;;;10.26;94.82;100825.19;5056586;28;20425;-69
2021/11/13 05:00:23;;;;;;;24.92;14.32;;;;;;;10.34;94.59;100830.28;5056108;28;20379;-70
2021/11/13 05:02:48;;;;;;;20.45;13.18;;;;;;;10.36;94.75;100830.91;5038171;28;20124;-69
2021/11/13 05:05:14;;;;;;;22.40;13.60;;;;;;;10.35;94.77;100818.94;5055964;28;20021;-69
2021/11/13 05:07:39;;;;;;;21.73;12.95;;;;;;;10.35;94.50;100831.06;5038050;28;20020;-69
2021/11/13 05:10:06;;;;;;;20.25;12.50;;;;;;;10.42;94.43;100831.16;5055745;28;20123;-70
2021/11/13 05:12:32;;;;;;;19.52;12.70;;;;;;;10.38;94.08;100826.34;5055815;28;20025;-69
2021/11/13 05:14:57;;;;;;;18.55;12.85;;;;;;;10.44;94.26;100829.16;5055797;28;20068;-70
2021/11/13 05:17:22;;;;;;;22.95;12.65;;;;;;;10.43;94.08;100833.53;5055589;28;20025;-70
2021/11/13 05:19:47;;;;;;;20.80;13.85;;;;;;;10.44;94.25;100829.97;5055718;28;20487;-70
2021/11/13 05:22:13;;;;;;;19.20;12.68;;;;;;;10.43;94.25;100825.00;5055659;28;20021;-70
2021/11/13 05:24:38;;;;;;;19.00;13.07;;;;;;;10.41;94.24;100839.88;5055631;28;20027;-70
2021/11/13 05:27:04;;;;;;;19.00;12.70;;;;;;;10.53;94.09;100835.81;5037670;28;20024;-69
2021/11/13 05:29:29;;;;;;;21.95;12.40;;;;;;;10.51;93.91;100840.38;5038062;28;20484;-70
2021/11/13 05:31:55;;;;;;;20.08;12.85;;;;;;;10.51;93.94;100841.19;5037628;28;20414;-70
2021/11/13 05:34:20;;;;;;;20.05;12.95;;;;;;;10.56;94.00;100840.63;5055645;28;20028;-70
2021/11/13 05:36:46;;;;;;;19.33;12.73;;;;;;;10.53;93.68;100849.56;5055004;28;20028;-70
2021/11/13 05:39:11;;;;;;;18.60;12.23;;;;;;;10.57;93.86;100849.97;5055287;28;20444;-70
2021/11/13 05:41:37;;;;;;;23.02;12.32;;;;;;;10.63;93.39;100845.84;5055805;28;20059;-70
2021/11/13 05:44:02;;;;;;;18.50;12.20;;;;;;;10.54;93.53;100848.56;5037402;28;20502;-70
2021/11/13 05:46:27;;;;;;;22.38;12.95;;;;;;;10.53;93.83;100851.31;5037361;28;20116;-70
2021/11/13 05:48:53;;;;;;;19.17;12.25;;;;;;;10.50;93.65;100841.34;5055381;28;20040;-70
2021/11/13 05:51:19;;;;;;;21.15;12.68;;;;;;;10.56;93.75;100856.13;5055056;28;20024;-70
2021/11/13 05:53:44;;;;;;;20.85;12.30;;;;;;;10.45;94.05;100843.72;5055002;28;20036;-70
2021/11/13 05:56:10;;;;;;;17.65;12.07;;;;;;;10.51;94.22;100853.31;5054972;28;20464;-69
2021/11/13 05:58:35;;;;;;;21.88;12.52;;;;;;;10.49;93.61;100856.06;5037028;28;20472;-69
2021/11/13 06:01:00;;;;;;;19.23;11.88;;;;;;;10.49;93.83;100852.69;5055415;28;20025;-69
2021/11/13 06:03:26;;;;;;;17.55;11.25;;;;;;;10.48;93.42;100858.84;5054884;28;20551;-70
2021/11/13 06:05:51;;;;;;;18.45;11.90;;;;;;;10.47;94.00;100859.81;5054820;28;20024;-70
2021/11/13 06:08:16;;;;;;;19.08;11.77;;;;;;;10.39;94.23;100861.53;5055331;28;20337;-70
2021/11/13 06:10:42;;;;;;;20.55;12.10;;;;;;;10.44;94.10;100855.78;5036732;28;20080;-70
2021/11/13 06:13:07;;;;;;;16.05;10.73;;;;;;;10.54;93.83;100861.47;5054651;28;20494;-70
2021/11/13 06:15:32;;;;;;;18.77;11.73;;;;;;;10.43;93.68;100856.78;5054618;28;20029;-70
2021/11/13 06:17:58;;;;;;;16.13;11.07;;;;;;;10.49;94.00;100865.59;5054550;28;20025;-70
2021/11/13 06:20:24;;;;;;;17.38;11.40;;;;;;;10.49;93.82;100865.59;5037241;28;20032;-69
2021/11/13 06:22:49;;;;;;;17.42;11.60;;;;;;;10.49;93.72;100870.75;5054378;28;20544;-69
2021/11/13 06:25:15;;;;;;;17.63;11.35;;;;;;;10.43;94.09;100867.13;5054481;28;20108;-70
2021/11/13 06:27:40;;;;;;;16.58;11.40;;;;;;;10.44;94.05;100873.88;5054403;28;20066;-70
2021/11/13 06:30:10;;;;;;;21.58;12.23;;;;;;;10.41;94.30;100870.88;5054381;28;20386;-70
2021/11/13 06:32:36;;;;;;;20.50;12.30;;;;;;;10.42;94.73;100875.88;5054345;28;20029;-69
2021/11/13 06:35:01;;;;;;;20.70;12.38;;;;;;;10.46;94.37;100878.88;5036313;28;20427;-70
2021/11/13 06:37:29;;;;;;;20.85;12.82;;;;;;;10.47;93.94;100880.47;5054675;28;20031;-70
2021/11/13 06:39:54;;;;;;;19.33;12.32;;;;;;;10.43;94.15;100880.03;5036274;28;20025;-69
2021/11/13 06:42:20;;;;;;;20.45;13.10;;;;;;;10.32;94.92;100883.09;5036467;28;20472;-70
2021/11/13 06:44:46;;;;;;;22.17;13.30;;;;;;;10.21;95.17;100884.34;5054140;28;20090;-69
2021/11/13 06:47:11;;;;;;;23.17;13.98;;;;;;;10.27;95.08;100891.41;5054081;28;20028;-69
2021/11/13 06:49:36;;;;;;;22.55;13.95;;;;;;;10.26;95.14;100894.94;5035383;28;20055;-69
2021/11/13 06:52:02;;;;;;;22.60;13.65;;;;;;;10.31;95.25;100902.97;5053826;28;20024;-69
2021/11/13 06:54:27;;;;;;;20.02;12.45;;;;;;;10.38;95.21;100914.16;5053898;28;20426;-70
2021/11/13 06:56:52;;;;;;;20.15;12.32;;;;;;;10.41;94.45;100901.88;5053482;28;20021;-69
2021/11/13 06:59:20;;;;;;;21.50;12.52;;;;;;;10.36;94.89;100910.97;5053641;28;20029;-69
2021/11/13 07:01:45;;;;;;;26.42;12.77;;;;;;;10.44;94.96;100914.44;5053650;28;20375;-69
2021/11/13 07:04:11;;;;;;;22.20;13.25;;;;;;;10.48;94.41;100920.84;5053678;28;20025;-69
2021/11/13 07:06:36;;;;;;;26.00;14.10;;;;;;;10.56;94.26;100925.91;5035603;28;20031;-70
2021/11/13 07:09:02;;;;;;;23.23;14.43;;;;;;;10.53;94.38;100934.00;5053729;28;20045;-70
2021/11/13 07:11:28;;;;;;;28.23;14.15;;;;;;;10.52;94.19;100933.19;5035894;28;20040;-70
2021/11/13 07:13:53;;;;;;;23.33;14.38;;;;;;;10.52;93.75;100942.75;5035607;28;20017;-70
2021/11/13 07:16:18;;;;;;;28.30;14.23;;;;;;;10.49;94.29;100951.66;5053480;28;20035;-70
2021/11/13 07:18:43;;;;;;;26.98;14.90;;;;;;;10.48;94.31;100949.28;5053473;28;20039;-70
2021/11/13 07:21:09;;;;;;;27.30;15.40;;;;;;;10.47;94.94;100958.81;5053332;28;20379;-70
2021/11/13 07:23:35;;;;;;;26.00;15.32;;;;;;;10.47;94.39;100945.06;5035370;28;20078;-70
2021/11/13 07:26:04;;;;;;;25.45;15.20;;;;;;;10.54;94.45;100969.22;5053266;28;20361;-70
2021/11/13 07:28:37;;;;;;;30.38;16.13;;;;;;;10.60;94.13;100976.22;5053167;28;20066;-70
2021/11/13 07:31:04;;;;;;;25.42;15.82;;;;;;;10.65;93.98;100979.06;5035277;28;20025;-70
2021/11/13 07:33:29;;;;;;;29.65;16.17;;;;;;;10.61;94.07;100975.25;5035296;28;20048;-70
2021/11/13 07:35:54;;;;;;;24.17;15.02;;;;;;;10.71;94.09;100988.69;5053307;28;20025;-71
2021/11/13 07:38:20;;;;;;;25.67;15.15;;;;;;;10.76;93.86;100983.78;5053076;28;20062;-70
2021/11/13 07:40:46;;;;;;;29.58;16.67;;;;;;;10.52;93.88;100973.75;5053022;28;20029;-70
2021/11/13 07:43:11;;;;;;;25.25;15.73;;;;;;;10.58;94.70;100985.94;5035180;28;20119;-70
2021/11/13 07:45:37;;;;;;;27.00;16.48;;;;;;;10.63;94.37;100981.03;5035158;28;20433;-69
2021/11/13 07:48:04;;;;;;;31.58;16.25;;;;;;;10.56;94.50;100977.59;5053253;28;20021;-69
2021/11/13 07:50:31;;;;;;;29.30;16.73;;;;;;;10.49;94.79;100976.69;5053144;28;20104;-69
2021/11/13 07:52:56;;;;;;;31.00;17.10;;;;;;;10.45;95.15;100971.09;5052979;28;20032;-69
2021/11/13 07:55:22;;;;;;;26.02;16.98;;;;;;;10.50;95.31;100975.69;5052842;28;20375;-69
2021/11/13 07:57:48;;;;;;;29.35;16.70;;;;;;;10.57;94.79;100974.81;5052979;28;20025;-69
2021/11/13 08:00:17;;;;;;;31.83;17.25;;;;;;;10.53;94.82;100970.16;5055131;28;20483;-69
2021/11/13 08:02:42;;;;;;;30.70;17.08;;;;;;;10.58;94.79;100973.81;5039119;28;20577;-69
2021/11/13 08:05:09;;;;;;;26.95;17.58;;;;;;;10.58;94.88;100978.97;5056980;28;20095;-69
2021/11/13 08:07:35;;;;;;;27.13;16.38;;;;;;;10.66;93.68;100978.09;5057553;28;20078;-69
2021/11/13 08:10:00;;;;;;;31.85;16.17;;;;;;;10.72;93.82;100979.94;5056975;28;20037;-69
2021/11/13 08:12:25;;;;;;;30.70;16.35;;;;;;;10.88;93.04;100984.09;5056896;28;20050;-69
2021/11/13 08:14:50;;;;;;;28.15;16.50;;;;;;;10.94;93.84;100985.94;5039060;28;20024;-69
2021/11/13 08:17:16;;;;;;;27.58;16.13;;;;;;;10.86;93.65;100993.00;5056811;28;20387;-69
2021/11/13 08:19:41;;;;;;;29.85;15.43;;;;;;;10.86;93.86;100995.59;5056829;28;20033;-69
2021/11/13 08:22:07;;;;;;;26.08;15.23;;;;;;;11.06;93.81;101001.75;5056731;28;20025;-69
2021/11/13 08:24:32;;;;;;;23.17;14.57;;;;;;;11.12;92.85;100997.63;5056928;28;20027;-69
2021/11/13 08:26:58;;;;;;;26.23;14.43;;;;;;;11.27;93.25;101006.13;5038818;28;20048;-69
2021/11/13 08:29:23;;;;;;;19.88;13.48;;;;;;;11.27;92.47;101017.28;5056691;28;20455;-69
2021/11/13 08:31:48;;;;;;;21.63;13.85;;;;;;;11.22;92.86;101018.81;5056582;28;20068;-69
2021/11/13 08:34:14;;;;;;;20.05;13.27;;;;;;;11.29;92.72;101012.72;5038560;28;20460;-69
2021/11/13 08:36:40;;;;;;;21.13;13.07;;;;;;;11.44;92.50;101019.59;5056455;28;20078;-69
2021/11/13 08:39:07;;;;;;;21.52;12.63;;;;;;;11.53;91.61;101018.47;5056514;28;20021;-69
2021/11/13 08:41:33;;;;;;;20.92;12.05;;;;;;;11.66;91.23;101026.38;5056423;28;20025;-69
2021/11/13 08:43:58;;;;;;;20.90;11.82;;;;;;;11.65;91.15;101026.53;5038502;28;20468;-69
2021/11/13 08:46:24;;;;;;;19.25;11.32;;;;;;;11.78;91.03;101028.44;5056342;28;20063;-69
2021/11/13 08:48:49;;;;;;;17.23;11.25;;;;;;;11.86;90.93;101025.75;5038664;28;20021;-69
2021/11/13 08:51:14;;;;;;;28.48;10.68;;;;;;;11.94;90.58;101035.97;5056217;28;20025;-69
2021/11/13 08:53:40;;;;;;;14.93;8.70;;;;;;;11.99;89.56;101031.00;5056095;28;20020;-69
2021/11/13 08:56:06;;;;;;;14.20;9.45;;;;;;;11.99;90.15;101032.78;5038261;28;20025;-69
2021/11/13 08:58:32;;;;;;;19.00;9.70;;;;;;;12.00;89.90;101031.78;5056025;28;20028;-69
2021/11/13 09:01:01;;;;;;;16.45;9.68;;;;;;;11.72;90.71;101028.19;5056032;28;20099;-69
2021/11/13 09:03:36;;;;;;;15.43;9.55;;;;;;;11.65;91.59;101035.13;5038067;28;20101;-69
2021/11/13 09:06:05;;;;;;;15.23;9.27;;;;;;;11.62;91.41;101027.72;5038169;28;20033;-69
2021/11/13 09:08:31;;;;;;;13.07;8.50;;;;;;;11.71;91.45;101036.97;5055629;28;20585;-69
2021/11/13 09:10:57;;;;;;;15.05;8.55;;;;;;;11.69;91.50;101043.31;5037379;28;20017;-69
2021/11/13 09:13:25;;;;;;;13.27;8.70;;;;;;;11.80;91.35;101050.56;5037820;28;20498;-69
2021/11/13 09:15:52;;;;;;;16.80;8.73;;;;;;;11.78;91.14;101055.13;5037957;28;20174;-69
2021/11/13 09:18:17;;;;;;;18.63;8.70;;;;;;;11.71;91.97;101059.47;5056372;28;20064;-69
2021/11/13 09:20:43;;;;;;;15.10;8.57;;;;;;;11.82;91.58;101071.88;5055933;28;20017;-69
2021/11/13 09:23:11;;;;;;;16.60;8.50;;;;;;;11.78;91.75;101069.88;5056218;28;20032;-69
2021/11/13 09:25:36;;;;;;;13.30;7.30;;;;;;;11.77;92.30;101071.66;5037773;28;20388;-69
2021/11/13 09:28:02;;;;;;;14.18;6.65;;;;;;;11.96;91.86;101073.59;5037696;28;20017;-69
2021/11/13 09:30:31;;;;;;;10.95;6.20;;;;;;;12.08;91.43;101071.28;5055669;28;20029;-69
2021/11/13 09:32:57;;;;;;;10.85;6.30;;;;;;;12.07;91.61;101081.84;5055462;28;20035;-69
2021/11/13 09:35:23;;;;;;;9.05;6.43;;;;;;;12.14;91.28;101074.91;5055947;28;20024;-70
2021/11/13 09:37:49;;;;;;;11.38;6.43;;;;;;;12.07;90.97;101077.47;5055320;28;20036;-70
2021/11/13 09:40:18;;;;;;;10.88;6.18;;;;;;;12.08;90.71;101080.84;5055279;28;20416;-70
2021/11/13 09:42:50;;;;;;;13.85;6.68;;;;;;;12.17;90.96;101083.13;5055273;28;20427;-70
2021/11/13 09:45:15;;;;;;;11.35;6.78;;;;;;;12.25;90.76;101078.78;5055303;28;20047;-69
2021/11/13 09:47:46;;;;;;;9.05;6.13;;;;;;;12.31;89.76;101088.38;5055741;28;20452;-69
2021/11/13 09:50:12;;;;;;;10.52;5.82;;;;;;;12.34;89.41;101081.03;5037229;28;20028;-70
2021/11/13 09:52:39;;;;;;;9.25;5.05;;;;;;;12.39;89.39;101088.22;5055498;28;20021;-69
2021/11/13 09:55:07;;;;;;;8.32;5.10;;;;;;;12.46;89.67;101094.25;5037017;28;20029;-70
2021/11/13 09:57:32;;;;;;;10.48;5.60;;;;;;;12.35;90.36;101092.19;5037035;28;20417;-71
2021/11/13 09:59:58;;;;;;;11.27;5.25;;;;;;;12.40;89.63;101097.63;5055443;28;20035;-69
2021/11/13 10:02:23;;;;;;;14.15;5.40;;;;;;;12.60;89.47;101108.06;5054865;28;20017;-69
2021/11/13 10:04:48;;;;;;;14.73;5.72;;;;;;;12.74;89.30;101106.34;5054810;28;20024;-70
2021/11/13 10:07:14;;;;;;;8.02;4.95;;;;;;;12.70;88.95;101100.75;5054811;28;20052;-71
2021/11/13 10:09:39;;;;;;;10.45;5.00;;;;;;;12.79;89.46;101104.78;5036602;28;20053;-70
2021/11/13 10:12:05;;;;;;;13.20;5.00;;;;;;;12.72;89.46;101118.72;5054637;28;20025;-71
2021/11/13 10:14:32;;;;;;;14.05;5.45;;;;;;;12.51;89.05;101122.19;5036630;28;20021;-72
2021/11/13 10:16:59;;;;;;;11.40;5.00;;;;;;;12.48;89.45;101120.78;5054842;28;20035;-70
2021/11/13 10:19:27;;;;;;;14.15;5.40;;;;;;;12.38;90.25;101125.50;5054628;28;20027;-71
2021/11/13 10:21:56;;;;;;;10.00;5.28;;;;;;;12.38;90.42;101121.13;5036547;28;20024;-72
2021/11/13 10:24:28;;;;;;;8.48;5.05;;;;;;;12.43;89.67;101128.34;5053794;28;20070;-71
2021/11/13 10:26:57;;;;;;;15.70;5.60;;;;;;;12.38;90.53;101133.28;5054705;28;20013;-70
2021/11/13 10:29:28;;;;;;;10.55;5.20;;;;;;;12.41;90.38;101131.09;5054155;28;20013;-71
2021/11/13 10:32:03;;;;;;;12.77;4.88;;;;;;;12.49;89.99;101135.34;5036478;28;20025;-70
2021/11/13 10:34:36;;;;;;;10.40;5.05;;;;;;;12.57;90.38;101134.38;5054227;28;20033;-70
2021/11/13 10:37:08;;;;;;;9.23;4.63;;;;;;;12.52;89.75;101134.97;5036413;28;20036;-70
2021/11/13 10:39:37;;;;;;;12.65;4.90;;;;;;;12.54;89.40;101127.00;5054148;28;20426;-70
2021/11/13 10:42:15;;;;;;;14.45;5.15;;;;;;;12.87;88.55;101127.16;5036264;28;20033;-70
2021/11/13 10:44:41;;;;;;;12.93;4.68;;;;;;;13.14;87.08;101143.63;5054109;28;20057;-70
2021/11/13 10:47:13;;;;;;;10.20;5.10;;;;;;;13.00;88.33;101152.34;5036111;28;20059;-70
2021/11/13 10:49:39;;;;;;;11.75;5.03;;;;;;;12.94;88.88;101148.72;5054188;28;20081;-70
2021/11/13 10:52:07;;;;;;;9.52;4.60;;;;;;;12.88;87.74;101144.31;5054023;28;20025;-70
2021/11/13 10:54:33;;;;;;;10.50;4.57;;;;;;;13.00;86.42;101141.97;5053919;28;20368;-70
2021/11/13 10:57:01;;;;;;;8.73;5.35;;;;;;;13.45;84.76;101142.34;5053732;28;20025;-69
2021/11/13 10:59:28;;;;;;;6.53;4.28;;;;;;;15.23;78.99;101129.25;5053827;28;20025;-70
2021/11/13 11:01:58;;;;;;;9.00;3.95;;;;;;;17.91;68.10;101127.75;5035904;28;20017;-71
2021/11/13 11:04:26;;;;;;;6.65;3.72;;;;;;;19.75;63.10;101130.50;5053623;28;20029;-71
2021/11/13 11:07:04;;;;;;;6.05;3.28;;;;;;;23.32;50.87;101129.94;5053315;28;20100;-71
2021/11/13 11:09:33;;;;;;;8.63;3.08;;;;;;;24.44;45.12;101093.84;5035468;28;20041;-72